createdAt,value
2019-03-15T00:02:16.988Z,86.8
2019-03-15T00:17:13.934Z,87.1
2019-03-15T00:30:11.367Z,89.1
2019-03-15T00:45:09.083Z,88.9
2019-03-15T01:02:13.234Z,88.9
2019-03-15T01:15:04.074Z,88.2
2019-03-15T01:30:05.343Z,87.2
2019-03-15T01:45:09.366Z,87.1
2019-03-15T02:00:13.710Z,87.1
2019-03-15T02:17:20.827Z,87
2019-03-15T02:30:03.329Z,87.5
2019-03-15T02:45:07.127Z,86.9
2019-03-15T03:00:11.038Z,87.3
2019-03-15T03:17:19.168Z,86.7
2019-03-15T03:30:03.029Z,86.8
2019-03-15T03:45:11.300Z,86.8
2019-03-15T04:00:06.129Z,86.2
2019-03-15T04:15:08.897Z,86.1
2019-03-15T04:32:14.583Z,85.2
2019-03-15T04:45:12.988Z,85.8
2019-03-15T05:00:11.939Z,85.5
2019-03-15T05:15:05.616Z,85.9
2019-03-15T05:30:10.183Z,87.8
2019-03-15T05:47:18.150Z,89.3
2019-03-15T06:00:11.108Z,88
2019-03-15T06:15:12.455Z,88.9
2019-03-15T06:30:04.605Z,87.9
2019-03-15T06:45:07.184Z,89.9
2019-03-15T07:00:05.509Z,90
2019-03-15T07:15:04.163Z,90.2
2019-03-15T07:30:11.674Z,89.4
2019-03-15T07:45:05.287Z,88.7
2019-03-15T08:00:04.967Z,87.5
2019-03-15T08:15:03.665Z,87
2019-03-15T08:32:22.207Z,87.2
2019-03-15T08:45:09.647Z,86.7
2019-03-15T09:00:04.959Z,86.8
2019-03-15T09:15:12.366Z,87.8
2019-03-15T09:32:20.551Z,88.4
2019-03-15T09:47:19.612Z,90
2019-03-15T10:00:11.922Z,90.5
2019-03-15T10:15:12.505Z,89.4
2019-03-15T10:30:06.540Z,91.2
2019-03-15T10:45:05.480Z,91.2
2019-03-15T12:00:10.340Z,92.3
2019-03-15T12:15:03.290Z,92.8
2019-03-15T12:30:05.514Z,93
2019-03-15T12:49:31.760Z,92.8
2019-03-15T13:00:08.862Z,93.3
2019-03-15T13:15:04.884Z,94
2019-03-15T13:30:03.294Z,93.4
2019-03-15T13:49:30.108Z,93
2019-03-15T14:02:16.194Z,94.3
2019-03-15T14:15:07.152Z,92.9
2019-03-15T14:30:07.535Z,93.9
2019-03-15T14:47:15.419Z,92.5
2019-03-15T15:00:12.040Z,93.9
2019-03-15T15:17:15.656Z,94.1
2019-03-15T15:30:11.651Z,93.4
2019-03-15T15:45:04.981Z,93
2019-03-15T16:00:07.732Z,93.8
2019-03-15T16:15:12.368Z,92.4
2019-03-15T16:32:21.229Z,94
2019-03-15T16:47:22.364Z,94.1
2019-03-15T17:00:06.619Z,93.4
2019-03-15T17:15:13.232Z,92.7
2019-03-15T17:30:06.680Z,93.4
2019-03-15T17:45:08.094Z,93.5
2019-03-15T18:02:15.771Z,93.5
2019-03-15T18:17:22.943Z,94
2019-03-15T18:30:10.614Z,94
2019-03-15T18:47:19.030Z,94.1
2019-03-15T19:00:13.284Z,94.1
2019-03-15T19:15:11.053Z,93.3
2019-03-15T19:30:06.555Z,93
2019-03-15T19:45:09.233Z,93.9
2019-03-15T20:00:13.663Z,93.9
2019-03-15T20:15:10.102Z,93.6
2019-03-15T20:30:03.663Z,93.3
2019-03-15T20:45:05.078Z,92.9
2019-03-15T21:00:09.531Z,92.8
2019-03-15T21:15:06.436Z,92.7
2019-03-15T21:32:17.274Z,92.7
2019-03-15T21:47:18.124Z,92.1
2019-03-15T22:00:10.344Z,91.3
2019-03-15T22:17:12.146Z,91.2
2019-03-15T22:30:10.805Z,90.9
2019-03-15T22:47:14.387Z,90.2
2019-03-15T23:00:02.815Z,90
2019-03-15T23:15:07.382Z,90.5
2019-03-15T23:30:10.151Z,90.1
2019-03-15T23:47:18.844Z,89.1
